Time;durP1;ratioP1;P1;durP2;ratioP2;P2;SDS_P1;SDS_P2;PMS_P1;PMS_P2;Temp;Humidity;BMP_temperature;BMP_pressure;BME280_temperature;BME280_humidity;BME280_pressure;Samples;Min_cycle;Max_cycle;Signal;HPM_P1;HPM_P2
2023/08/20 00:01:09;;;;;;;15.40;5.70;;;;;;;21.43;64.07;101379.24;107477;1254;96587;-66
2023/08/20 00:03:51;;;;;;;17.90;5.40;;;;;;;21.42;64.18;101382.82;107460;1254;109848;-67
2023/08/20 00:06:20;;;;;;;15.90;5.70;;;;;;;21.39;64.27;101382.61;107442;1254;110208;-66
2023/08/20 00:08:49;;;;;;;17.90;5.40;;;;;;;21.38;64.59;101385.88;107446;1254;108900;-66
2023/08/20 00:11:17;;;;;;;13.10;5.60;;;;;;;21.35;64.59;101383.33;107406;1254;97027;-67
2023/08/20 00:13:46;;;;;;;16.30;5.30;;;;;;;21.34;64.66;101380.57;107429;1254;96487;-67
2023/08/20 00:16:14;;;;;;;18.80;5.60;;;;;;;21.33;64.84;101379.77;107420;1254;110231;-66
2023/08/20 00:18:43;;;;;;;14.00;5.20;;;;;;;21.31;65.24;101376.25;107450;1254;109288;-67
2023/08/20 00:21:14;;;;;;;14.00;5.20;;;;;;;21.27;64.91;101379.81;107431;1254;107494;-66
2023/08/20 00:23:42;;;;;;;14.10;5.20;;;;;;;21.23;65.02;101374.01;107419;1254;96472;-65
2023/08/20 00:26:12;;;;;;;10.50;4.90;;;;;;;21.20;65.22;101374.39;107451;1253;96538;-66
2023/08/20 00:28:41;;;;;;;15.00;5.00;;;;;;;21.18;65.23;101370.36;107404;1254;109922;-65
2023/08/20 00:31:09;;;;;;;15.30;5.00;;;;;;;21.16;65.47;101376.70;107253;1257;109284;-66
2023/08/20 00:33:38;;;;;;;32.30;5.70;;;;;;;21.15;65.42;101368.18;107375;1254;107360;-66
2023/08/20 00:36:07;;;;;;;11.10;5.50;;;;;;;21.14;65.36;101366.59;107362;1257;97264;-68
2023/08/20 00:38:35;;;;;;;19.30;6.00;;;;;;;21.15;65.22;101366.64;107234;1257;97106;-67
2023/08/20 00:41:04;;;;;;;14.80;5.10;;;;;;;21.16;65.01;101364.08;107369;1254;110515;-68
2023/08/20 00:43:33;;;;;;;10.10;5.50;;;;;;;21.14;64.91;101370.66;107424;1254;109683;-68
2023/08/20 00:46:01;;;;;;;14.40;5.90;;;;;;;21.11;65.11;101371.13;107206;1254;107704;-66
2023/08/20 00:48:30;;;;;;;17.50;5.30;;;;;;;21.09;65.01;101368.63;107275;1257;96479;-66
2023/08/20 00:51:00;;;;;;;16.80;5.30;;;;;;;21.09;65.00;101368.08;107400;1254;96494;-65
2023/08/20 00:53:29;;;;;;;15.90;5.40;;;;;;;21.10;64.99;101372.26;107386;1254;111499;-66
2023/08/20 00:55:57;;;;;;;14.40;5.00;;;;;;;21.08;65.05;101371.86;107382;1254;109979;-67
2023/08/20 00:58:25;;;;;;;13.20;5.50;;;;;;;21.06;65.68;101371.54;107425;1254;107940;-66
2023/08/20 01:00:53;;;;;;;18.70;5.10;;;;;;;21.02;66.15;101370.30;107370;1254;96600;-65
2023/08/20 01:03:21;;;;;;;19.80;5.20;;;;;;;20.97;65.99;101370.02;107420;1254;96478;-67
2023/08/20 01:05:58;;;;;;;15.90;5.70;;;;;;;20.93;66.15;101368.88;107409;1254;110905;-67
2023/08/20 01:08:38;;;;;;;10.00;5.40;;;;;;;20.90;65.82;101370.48;107398;1257;109061;-66
2023/08/20 01:11:16;;;;;;;15.80;5.60;;;;;;;20.86;65.89;101371.89;107202;1257;108886;-66
2023/08/20 01:13:45;;;;;;;16.20;5.10;;;;;;;20.81;66.25;101368.73;107326;1257;96493;-66
2023/08/20 01:16:14;;;;;;;12.70;5.10;;;;;;;20.76;66.10;101366.93;107463;1254;96635;-66
2023/08/20 01:18:42;;;;;;;14.40;5.00;;;;;;;20.70;66.82;101370.48;107415;1254;109541;-66
2023/08/20 01:21:34;;;;;;;17.30;5.10;;;;;;;20.66;66.65;101370.67;107383;1254;108273;-67
2023/08/20 01:24:17;;;;;;;14.10;5.20;;;;;;;20.61;67.02;101369.10;107399;1254;108654;-68
2023/08/20 01:26:57;;;;;;;21.00;6.20;;;;;;;20.56;67.26;101367.50;107425;1254;96599;-67
2023/08/20 01:29:26;;;;;;;13.80;5.30;;;;;;;20.52;67.18;101365.14;107290;1254;96503;-66
2023/08/20 01:31:56;;;;;;;14.60;5.30;;;;;;;20.49;67.52;101362.36;107373;1254;110517;-65
2023/08/20 01:34:25;;;;;;;19.00;5.80;;;;;;;20.48;68.06;101363.55;107414;1254;108816;-65
2023/08/20 01:36:53;;;;;;;21.20;5.40;;;;;;;20.44;68.31;101359.42;107402;1254;107680;-64
2023/08/20 01:39:21;;;;;;;12.40;5.60;;;;;;;20.44;68.00;101360.96;107334;1254;96527;-66
2023/08/20 01:41:49;;;;;;;19.20;5.50;;;;;;;20.43;67.79;101361.73;107391;1257;96606;-67
2023/08/20 01:44:17;;;;;;;16.10;5.60;;;;;;;20.43;68.48;101365.39;107317;1253;110117;-67
2023/08/20 01:46:46;;;;;;;10.90;5.80;;;;;;;20.41;68.51;101361.69;107380;1254;109616;-66
2023/08/20 01:49:14;;;;;;;14.40;4.90;;;;;;;20.39;68.31;101364.93;107274;1257;107085;-67
2023/08/20 01:51:42;;;;;;;10.40;5.10;;;;;;;20.39;68.47;101366.52;107280;1254;97157;-67
2023/08/20 01:54:11;;;;;;;19.40;5.10;;;;;;;20.36;68.86;101368.47;107391;1254;96550;-67
2023/08/20 01:56:39;;;;;;;14.00;5.70;;;;;;;20.33;68.98;101369.14;107175;1254;110077;-67
2023/08/20 01:59:08;;;;;;;10.10;5.50;;;;;;;20.29;68.83;101365.77;107430;1254;109887;-66
2023/08/20 02:01:36;;;;;;;11.70;5.10;;;;;;;20.29;68.97;101369.67;107419;1254;108466;-67
2023/08/20 02:04:05;;;;;;;11.10;5.50;;;;;;;20.26;68.73;101364.74;107250;1254;97016;-66
2023/08/20 02:06:33;;;;;;;19.90;6.30;;;;;;;20.26;68.76;101366.72;107393;1254;97052;-67
2023/08/20 02:09:03;;;;;;;16.70;6.90;;;;;;;20.27;68.62;101370.94;107369;1254;110332;-66
2023/08/20 02:11:35;;;;;;;16.50;6.40;;;;;;;20.28;68.41;101371.83;107236;1254;109660;-67
2023/08/20 02:14:03;;;;;;;10.30;5.50;;;;;;;20.28;68.71;101374.32;107446;1254;106504;-68
2023/08/20 02:16:32;;;;;;;16.80;5.50;;;;;;;20.27;68.73;101375.21;107284;1254;96673;-67
2023/08/20 02:19:01;;;;;;;12.60;6.10;;;;;;;20.29;68.48;101373.52;107457;1254;96359;-66
2023/08/20 02:21:30;;;;;;;14.80;6.30;;;;;;;20.32;68.26;101371.61;107495;1257;109874;-67
2023/08/20 02:23:58;;;;;;;13.30;5.50;;;;;;;20.35;68.25;101378.02;107490;1254;109048;-67
2023/08/20 02:26:28;;;;;;;14.20;6.60;;;;;;;20.37;68.14;101378.61;107480;1254;108351;-67
2023/08/20 02:28:56;;;;;;;21.10;5.80;;;;;;;20.38;68.01;101380.23;107465;1254;96483;-66
2023/08/20 02:31:24;;;;;;;15.20;5.60;;;;;;;20.40;68.06;101384.17;107493;1254;96478;-66
2023/08/20 02:33:56;;;;;;;12.70;5.30;;;;;;;20.41;67.94;101391.67;107448;1254;109551;-65
2023/08/20 02:36:25;;;;;;;11.00;5.60;;;;;;;20.43;68.02;101392.99;107273;1254;109164;-67
2023/08/20 02:38:54;;;;;;;18.00;5.90;;;;;;;20.43;68.01;101397.67;107513;1254;108358;-69
2023/08/20 02:41:22;;;;;;;15.90;6.50;;;;;;;20.44;67.91;101398.82;107384;1257;96484;-66
2023/08/20 02:43:51;;;;;;;16.00;5.70;;;;;;;20.45;67.83;101396.85;107302;1254;97276;-67
2023/08/20 02:46:21;;;;;;;19.80;6.10;;;;;;;20.45;67.80;101401.02;107393;1253;110483;-67
2023/08/20 02:48:49;;;;;;;10.60;6.00;;;;;;;20.46;67.74;101397.70;107471;1254;109645;-66
2023/08/20 02:51:18;;;;;;;16.40;6.20;;;;;;;20.47;67.72;101399.95;107298;1254;107817;-66
2023/08/20 02:53:46;;;;;;;21.40;6.80;;;;;;;20.48;67.76;101400.27;107323;1254;96376;-66
2023/08/20 02:56:14;;;;;;;22.00;6.40;;;;;;;20.51;67.88;101399.43;107403;1257;97044;-66
2023/08/20 02:58:42;;;;;;;15.50;6.00;;;;;;;20.51;67.57;101397.25;107430;1254;110648;-67
2023/08/20 03:01:25;;;;;;;17.70;6.20;;;;;;;20.50;67.61;101398.98;107430;1254;107809;-66
2023/08/20 03:03:54;;;;;;;16.60;6.30;;;;;;;20.50;67.65;101398.14;107373;1259;106879;-66
2023/08/20 03:06:22;;;;;;;12.90;6.10;;;;;;;20.50;67.45;101400.67;107428;1254;96511;-66
2023/08/20 03:08:50;;;;;;;19.40;6.40;;;;;;;20.51;67.53;101404.77;107330;1253;96679;-67
2023/08/20 03:11:19;;;;;;;18.20;6.60;;;;;;;20.52;67.72;101399.73;107471;1254;110913;-66
2023/08/20 03:13:47;;;;;;;13.90;5.80;;;;;;;20.52;67.46;101396.84;107388;1254;109465;-66
2023/08/20 03:16:15;;;;;;;19.30;6.40;;;;;;;20.52;67.37;101394.91;107457;1253;107876;-66
2023/08/20 03:18:44;;;;;;;17.00;6.80;;;;;;;20.54;67.17;101394.89;107411;1254;96535;-67
2023/08/20 03:21:12;;;;;;;24.10;7.60;;;;;;;20.55;67.10;101399.48;107309;1254;96762;-66
2023/08/20 03:23:40;;;;;;;12.60;6.70;;;;;;;20.53;66.78;101402.83;107406;1257;110545;-68
2023/08/20 03:26:09;;;;;;;18.20;7.50;;;;;;;20.51;66.57;101403.59;107417;1254;109797;-66
2023/08/20 03:28:37;;;;;;;17.30;8.20;;;;;;;20.50;66.48;101405.00;107389;1254;108112;-64
2023/08/20 03:31:06;;;;;;;16.70;7.30;;;;;;;20.52;66.53;101404.20;107454;1254;97906;-66
2023/08/20 03:33:36;;;;;;;18.30;7.30;;;;;;;20.55;66.39;101404.41;107421;1254;98352;-66
2023/08/20 03:36:05;;;;;;;16.00;7.40;;;;;;;20.59;66.53;101402.10;107310;1253;111841;-65
2023/08/20 03:38:33;;;;;;;26.40;7.90;;;;;;;20.61;66.37;101402.02;107388;1254;109050;-66
2023/08/20 03:41:03;;;;;;;16.70;7.30;;;;;;;20.65;66.16;101402.08;107379;1254;107986;-65
2023/08/20 03:43:32;;;;;;;12.40;7.40;;;;;;;20.71;66.16;101404.35;107385;1254;97845;-68
2023/08/20 03:46:02;;;;;;;20.10;7.20;;;;;;;20.76;66.00;101402.43;107319;1254;97806;-66
2023/08/20 03:48:30;;;;;;;20.20;7.30;;;;;;;20.78;65.73;101403.61;107405;1259;111200;-67
2023/08/20 03:50:59;;;;;;;15.00;6.60;;;;;;;20.80;65.57;101403.00;107365;1254;109521;-67
2023/08/20 03:53:27;;;;;;;13.90;6.90;;;;;;;20.84;65.47;101406.08;107449;1254;108234;-64
2023/08/20 03:55:55;;;;;;;15.80;6.50;;;;;;;20.85;65.30;101407.90;107367;1254;97902;-66
2023/08/20 03:58:24;;;;;;;16.30;6.70;;;;;;;20.87;65.19;101410.66;107386;1257;97845;-67
2023/08/20 04:00:52;;;;;;;27.10;7.90;;;;;;;20.90;65.03;101411.67;107385;1256;111724;-68
2023/08/20 04:03:21;;;;;;;18.40;7.40;;;;;;;20.93;64.99;101412.63;107411;1258;110027;-68
2023/08/20 04:05:49;;;;;;;19.10;7.20;;;;;;;20.97;64.87;101411.96;107126;1257;107460;-66
2023/08/20 04:08:17;;;;;;;16.40;7.40;;;;;;;21.02;64.72;101414.64;107351;1257;97835;-66
2023/08/20 04:10:46;;;;;;;13.50;7.00;;;;;;;21.05;64.86;101410.91;107405;1257;97728;-66
2023/08/20 04:13:16;;;;;;;15.60;6.60;;;;;;;21.06;64.47;101413.52;107215;1257;112071;-66
2023/08/20 04:15:44;;;;;;;13.00;7.10;;;;;;;21.03;64.24;101413.36;107353;1258;108984;-66
2023/08/20 04:18:12;;;;;;;14.30;7.60;;;;;;;21.03;64.15;101413.91;107375;1255;107377;-65
2023/08/20 04:20:41;;;;;;;21.70;7.60;;;;;;;21.02;64.28;101414.82;107301;1257;97857;-67
2023/08/20 04:23:10;;;;;;;20.90;7.80;;;;;;;21.02;64.19;101414.86;107309;1257;98379;-66
2023/08/20 04:25:38;;;;;;;18.60;7.50;;;;;;;21.02;64.15;101414.73;107240;1257;111752;-65
2023/08/20 04:28:07;;;;;;;21.20;7.60;;;;;;;21.04;64.04;101412.33;107197;1255;109618;-67
2023/08/20 04:30:36;;;;;;;24.20;7.40;;;;;;;21.06;63.90;101413.02;107305;1256;108546;-66
2023/08/20 04:33:06;;;;;;;19.00;8.00;;;;;;;21.08;63.90;101413.80;107266;1256;97924;-67
2023/08/20 04:35:34;;;;;;;21.90;7.50;;;;;;;21.06;63.49;101413.95;107363;1257;97732;-67
2023/08/20 04:38:04;;;;;;;16.60;7.60;;;;;;;21.07;63.76;101413.95;107199;1256;111784;-67
2023/08/20 04:40:33;;;;;;;19.30;8.10;;;;;;;21.11;63.69;101414.52;107309;1256;108882;-68
2023/08/20 04:43:01;;;;;;;18.80;7.10;;;;;;;21.17;63.51;101416.99;107240;1257;107846;-66
2023/08/20 04:45:30;;;;;;;18.80;7.50;;;;;;;21.21;63.50;101413.20;107371;1255;97842;-66
2023/08/20 04:47:59;;;;;;;15.80;7.20;;;;;;;21.22;63.30;101419.38;107158;1257;98354;-66
2023/08/20 04:50:29;;;;;;;19.50;7.00;;;;;;;21.21;63.15;101415.14;107178;1260;111028;-67
2023/08/20 04:53:01;;;;;;;25.30;8.00;;;;;;;21.22;63.16;101415.16;107420;1254;109046;-67
2023/08/20 04:55:29;;;;;;;16.90;7.00;;;;;;;21.27;63.21;101415.14;107302;1254;108404;-65
2023/08/20 04:57:58;;;;;;;28.10;7.70;;;;;;;21.31;63.21;101417.79;107401;1254;97966;-65
2023/08/20 05:00:26;;;;;;;18.30;6.80;;;;;;;21.33;63.18;101418.66;107450;1254;98428;-66
2023/08/20 05:03:06;;;;;;;18.60;6.80;;;;;;;21.38;63.14;101417.11;107425;1254;110900;-66
2023/08/20 05:05:34;;;;;;;23.80;6.40;;;;;;;21.42;63.13;101418.05;107197;1254;110327;-65
2023/08/20 05:08:03;;;;;;;25.40;6.90;;;;;;;21.46;63.13;101418.14;107252;1260;107823;-67
2023/08/20 05:10:31;;;;;;;20.90;6.60;;;;;;;21.50;63.04;101419.37;107299;1254;98167;-65
2023/08/20 05:12:59;;;;;;;15.50;6.60;;;;;;;21.53;62.91;101419.73;107411;1254;97710;-66
2023/08/20 05:15:28;;;;;;;14.50;6.60;;;;;;;21.53;62.74;101420.83;107439;1254;111381;-67
2023/08/20 05:17:57;;;;;;;18.10;6.80;;;;;;;21.57;62.68;101417.48;107393;1254;108429;-68
2023/08/20 05:20:25;;;;;;;11.80;6.40;;;;;;;21.64;62.44;101418.33;107217;1257;108059;-67
2023/08/20 05:22:55;;;;;;;12.50;6.00;;;;;;;21.67;62.23;101416.81;107382;1254;97723;-68
2023/08/20 05:25:24;;;;;;;12.60;6.30;;;;;;;21.66;62.12;101418.40;107456;1254;97837;-66
2023/08/20 05:27:52;;;;;;;16.00;6.00;;;;;;;21.68;62.15;101414.80;107289;1254;111265;-66
2023/08/20 05:30:21;;;;;;;15.80;6.00;;;;;;;21.72;61.92;101419.94;107389;1254;110140;-67
2023/08/20 05:32:49;;;;;;;9.80;6.20;;;;;;;21.76;61.60;101421.28;107291;1260;107992;-66
2023/08/20 05:35:18;;;;;;;15.90;6.00;;;;;;;21.82;61.50;101423.11;107297;1254;97850;-66
2023/08/20 05:37:46;;;;;;;14.30;5.80;;;;;;;21.85;60.84;101429.13;107288;1256;97845;-68
2023/08/20 05:40:16;;;;;;;14.20;6.20;;;;;;;21.90;60.70;101423.36;107386;1257;111008;-65
2023/08/20 05:42:44;;;;;;;14.40;5.70;;;;;;;21.97;60.41;101420.90;107420;1254;109329;-66
2023/08/20 05:45:12;;;;;;;11.50;5.90;;;;;;;22.00;60.43;101425.39;107415;1254;108616;-66
2023/08/20 05:47:41;;;;;;;18.10;6.20;;;;;;;22.05;60.34;101430.99;107323;1254;97882;-67
2023/08/20 05:50:10;;;;;;;12.10;6.10;;;;;;;22.09;60.21;101427.04;107244;1256;97739;-66
2023/08/20 05:52:38;;;;;;;18.20;5.80;;;;;;;22.12;60.01;101431.02;107433;1254;111824;-65
2023/08/20 05:55:07;;;;;;;15.90;6.10;;;;;;;22.16;60.15;101424.10;107311;1254;108981;-67
2023/08/20 05:57:37;;;;;;;12.70;5.70;;;;;;;22.23;60.02;101423.61;107437;1254;106348;-67
2023/08/20 06:00:06;;;;;;;16.20;6.00;;;;;;;22.30;59.71;101420.47;107278;1254;97837;-66
2023/08/20 06:02:40;;;;;;;17.10;5.70;;;;;;;22.35;59.59;101419.95;107412;1253;97943;-66
2023/08/20 06:05:10;;;;;;;19.30;5.60;;;;;;;22.42;59.44;101424.59;107424;1254;111036;-67
2023/08/20 06:07:38;;;;;;;16.40;6.70;;;;;;;22.49;59.16;101427.52;107336;1254;108834;-67
2023/08/20 06:10:07;;;;;;;10.50;6.10;;;;;;;22.56;59.02;101424.36;107394;1257;107918;-66
2023/08/20 06:12:36;;;;;;;14.00;4.80;;;;;;;22.64;58.93;101425.50;107439;1256;98618;-66
2023/08/20 06:15:06;;;;;;;9.90;5.80;;;;;;;22.71;58.72;101420.12;107452;1255;97828;-66
2023/08/20 06:17:34;;;;;;;18.00;6.00;;;;;;;22.80;58.66;101423.75;107462;1254;111209;-65
2023/08/20 06:20:08;;;;;;;20.20;6.70;;;;;;;22.90;58.42;101423.21;107429;1254;109156;-67
2023/08/20 06:22:37;;;;;;;9.00;5.70;;;;;;;22.97;58.33;101424.14;107390;1254;107407;-67
2023/08/20 06:25:07;;;;;;;17.40;6.20;;;;;;;23.06;58.13;101423.69;107455;1253;98310;-66
2023/08/20 06:27:35;;;;;;;28.50;7.20;;;;;;;23.15;57.93;101424.36;107459;1254;98363;-66
2023/08/20 06:30:06;;;;;;;18.40;6.10;;;;;;;23.21;57.76;101422.77;107415;1254;111865;-66
2023/08/20 06:32:35;;;;;;;11.70;6.10;;;;;;;23.29;57.73;101419.21;107368;1254;110317;-67
2023/08/20 06:35:05;;;;;;;13.40;5.70;;;;;;;23.36;57.46;101420.21;107413;1254;108178;-66
2023/08/20 06:37:33;;;;;;;15.80;5.70;;;;;;;23.41;57.04;101420.17;107427;1254;97892;-68
2023/08/20 06:40:02;;;;;;;23.90;5.90;;;;;;;23.48;57.32;101411.84;107411;1254;97848;-67
2023/08/20 06:42:31;;;;;;;19.10;6.20;;;;;;;23.58;57.06;101413.14;107412;1254;111039;-65
2023/08/20 06:44:59;;;;;;;21.50;5.80;;;;;;;23.67;56.68;101415.40;107383;1254;110136;-66
2023/08/20 06:47:27;;;;;;;28.70;9.80;;;;;;;23.78;56.55;101415.73;107380;1254;108484;-69
2023/08/20 06:49:56;;;;;;;15.80;9.90;;;;;;;23.89;56.61;101409.48;107398;1254;97914;-66
2023/08/20 06:52:24;;;;;;;27.60;7.30;;;;;;;23.99;56.12;101411.12;107364;1256;97831;-67
2023/08/20 06:54:52;;;;;;;21.60;6.20;;;;;;;24.09;56.02;101412.48;107348;1258;111891;-68
2023/08/20 06:57:20;;;;;;;13.70;5.80;;;;;;;24.22;55.91;101411.84;107339;1257;110307;-67
2023/08/20 06:59:49;;;;;;;10.80;6.10;;;;;;;24.36;55.75;101410.70;107350;1256;108247;-66
2023/08/20 07:02:17;;;;;;;12.40;6.10;;;;;;;24.47;55.06;101410.44;107360;1257;97840;-67
2023/08/20 07:04:45;;;;;;;17.30;6.40;;;;;;;24.54;54.71;101412.70;107388;1257;98366;-68
2023/08/20 07:07:14;;;;;;;15.00;6.10;;;;;;;24.64;54.46;101412.75;107360;1257;113007;-67
2023/08/20 07:09:43;;;;;;;10.20;6.20;;;;;;;24.76;54.51;101407.41;107380;1257;109717;-65
2023/08/20 07:12:11;;;;;;;25.50;7.00;;;;;;;24.86;54.32;101406.59;107361;1258;108803;-67
2023/08/20 07:14:39;;;;;;;19.90;6.40;;;;;;;24.95;54.38;101405.41;107356;1256;97835;-62
2023/08/20 07:17:07;;;;;;;14.90;5.90;;;;;;;25.06;53.97;101404.30;107321;1256;97844;-62
2023/08/20 07:19:36;;;;;;;18.60;6.20;;;;;;;25.14;53.43;101404.79;107375;1258;112146;-61
2023/08/20 07:22:05;;;;;;;10.20;5.60;;;;;;;25.24;53.33;101405.33;107375;1257;109443;-61
2023/08/20 07:24:35;;;;;;;13.60;5.60;;;;;;;25.37;53.11;101408.41;107319;1257;108072;-61
2023/08/20 07:27:10;;;;;;;23.70;6.30;;;;;;;25.47;53.08;101402.58;107347;1256;97943;-62
2023/08/20 07:29:40;;;;;;;18.20;6.40;;;;;;;25.59;52.90;101399.92;107363;1256;98009;-61
2023/08/20 07:32:09;;;;;;;13.90;6.20;;;;;;;25.72;52.78;101401.75;107411;1256;111204;-62
2023/08/20 07:34:37;;;;;;;20.50;5.70;;;;;;;25.83;52.62;101397.02;107349;1256;109946;-62
2023/08/20 07:37:06;;;;;;;16.40;6.10;;;;;;;25.94;52.15;101397.82;107431;1256;107558;-62
2023/08/20 07:39:35;;;;;;;16.90;6.20;;;;;;;26.04;52.01;101394.69;107364;1256;97957;-62
2023/08/20 07:42:03;;;;;;;19.20;6.60;;;;;;;26.16;51.76;101389.18;107382;1256;97723;-62
2023/08/20 07:44:32;;;;;;;15.40;6.00;;;;;;;26.25;51.31;101389.27;107388;1257;111408;-61
2023/08/20 07:47:00;;;;;;;18.00;6.00;;;;;;;26.34;50.83;101390.80;107379;1257;109102;-62
2023/08/20 07:49:30;;;;;;;10.50;6.00;;;;;;;26.42;50.68;101385.51;107394;1257;108243;-62
2023/08/20 07:51:59;;;;;;;11.80;6.40;;;;;;;26.53;50.67;101385.07;107411;1254;97818;-62
2023/08/20 07:54:28;;;;;;;18.80;6.10;;;;;;;26.65;50.72;101380.64;107438;1254;98373;-62
2023/08/20 07:56:57;;;;;;;19.80;6.30;;;;;;;26.78;50.62;101376.95;107361;1254;112040;-62
2023/08/20 07:59:25;;;;;;;12.60;6.50;;;;;;;26.91;50.14;101378.13;107407;1254;109309;-62
2023/08/20 08:01:53;;;;;;;16.00;6.90;;;;;;;27.04;49.92;101376.05;107374;1254;107733;-62
2023/08/20 08:04:22;;;;;;;24.80;8.90;;;;;;;27.19;49.65;101372.12;107379;1254;97811;-62
2023/08/20 08:06:50;;;;;;;22.40;9.60;;;;;;;27.36;49.67;101373.93;107363;1254;97723;-65
2023/08/20 08:09:27;;;;;;;19.10;6.90;;;;;;;27.52;49.61;101373.83;107440;1254;111736;-61
2023/08/20 08:11:59;;;;;;;16.70;6.10;;;;;;;27.67;49.24;101371.46;107433;1253;109945;-62
2023/08/20 08:14:28;;;;;;;10.60;6.20;;;;;;;27.81;48.39;101371.77;107428;1254;108541;-61
2023/08/20 08:16:57;;;;;;;24.60;5.90;;;;;;;27.93;48.09;101368.38;107384;1254;97867;-64
2023/08/20 08:19:25;;;;;;;17.00;7.40;;;;;;;28.10;48.41;101363.48;107431;1254;97911;-63
2023/08/20 08:21:54;;;;;;;17.60;7.60;;;;;;;28.27;48.03;101364.55;107436;1254;112230;-62
2023/08/20 08:24:22;;;;;;;18.00;5.10;;;;;;;28.41;47.75;101369.52;107450;1254;109899;-61
2023/08/20 08:26:50;;;;;;;15.20;5.50;;;;;;;28.57;47.82;101371.77;107442;1254;108162;-61
2023/08/20 08:29:18;;;;;;;11.40;6.70;;;;;;;28.74;47.49;101371.50;107412;1254;98528;-62
2023/08/20 08:31:47;;;;;;;11.20;5.50;;;;;;;28.89;46.59;101364.06;107422;1254;97722;-62
2023/08/20 08:34:18;;;;;;;15.50;6.40;;;;;;;29.05;46.71;101360.90;107412;1254;111532;-61
2023/08/20 08:36:47;;;;;;;14.50;5.60;;;;;;;29.24;46.30;101364.09;107426;1254;109539;-62
2023/08/20 08:39:15;;;;;;;18.50;5.60;;;;;;;29.43;46.36;101362.60;107370;1260;108619;-62
2023/08/20 08:41:45;;;;;;;13.30;5.00;;;;;;;29.64;45.73;101359.05;107417;1254;97931;-63
2023/08/20 08:44:14;;;;;;;19.80;6.10;;;;;;;29.83;45.17;101359.58;107498;1254;98467;-63
2023/08/20 08:46:42;;;;;;;15.00;5.50;;;;;;;29.99;44.12;101357.11;107446;1254;112197;-62
2023/08/20 08:49:11;;;;;;;12.10;6.00;;;;;;;30.17;43.86;101356.77;107417;1254;109809;-62
2023/08/20 08:51:44;;;;;;;16.20;5.30;;;;;;;30.36;43.61;101354.04;107427;1257;107749;-62
2023/08/20 08:54:15;;;;;;;21.70;5.70;;;;;;;30.53;43.23;101350.86;107426;1254;97959;-62
2023/08/20 08:56:43;;;;;;;8.20;4.60;;;;;;;30.71;42.91;101347.77;107360;1254;97752;-62
2023/08/20 08:59:11;;;;;;;8.70;4.50;;;;;;;30.90;41.71;101346.35;107410;1256;111490;-63
2023/08/20 09:01:41;;;;;;;11.10;4.70;;;;;;;31.10;41.06;101342.52;107432;1254;109829;-61
2023/08/20 09:04:09;;;;;;;17.00;5.00;;;;;;;31.28;41.28;101340.07;107371;1254;107088;-62
2023/08/20 09:06:48;;;;;;;11.40;4.70;;;;;;;31.48;41.34;101335.92;107340;1259;97919;-62
2023/08/20 09:09:18;;;;;;;10.20;4.60;;;;;;;31.73;41.60;101334.40;107401;1254;97848;-62
2023/08/20 09:11:47;;;;;;;18.80;4.00;;;;;;;31.99;39.66;101329.77;107434;1254;112406;-62
2023/08/20 09:14:28;;;;;;;10.60;3.70;;;;;;;32.24;39.83;101322.54;107435;1254;108644;-62
2023/08/20 09:16:58;;;;;;;11.30;3.80;;;;;;;32.56;39.17;101324.11;107421;1254;107933;-62
2023/08/20 09:19:39;;;;;;;10.80;4.20;;;;;;;32.87;38.66;101319.73;107391;1257;97851;-60
2023/08/20 09:22:07;;;;;;;13.70;4.40;;;;;;;33.18;37.97;101316.42;107433;1254;97860;-61
2023/08/20 09:24:42;;;;;;;9.90;4.00;;;;;;;33.50;37.60;101316.42;107454;1254;111809;-61
2023/08/20 09:27:12;;;;;;;8.90;3.70;;;;;;;33.87;36.28;101311.18;107438;1257;107777;-62
2023/08/20 09:29:53;;;;;;;6.80;4.00;;;;;;;34.21;35.43;101311.68;107313;1257;107480;-62
2023/08/20 09:32:24;;;;;;;12.10;3.90;;;;;;;34.63;35.12;101306.60;107381;1257;97951;-62
2023/08/20 09:34:54;;;;;;;12.20;3.90;;;;;;;35.09;34.37;101307.83;107408;1254;97866;-62
2023/08/20 09:37:24;;;;;;;8.70;3.50;;;;;;;35.56;33.81;101305.19;107409;1254;111274;-62
2023/08/20 09:39:53;;;;;;;5.90;3.10;;;;;;;36.09;33.23;101303.54;107365;1260;109390;-62
2023/08/20 09:42:22;;;;;;;10.60;3.80;;;;;;;36.68;31.54;101302.42;107361;1258;107931;-62
2023/08/20 09:44:52;;;;;;;6.80;3.20;;;;;;;37.28;29.61;101300.87;107434;1254;97864;-60
2023/08/20 09:47:24;;;;;;;9.50;3.00;;;;;;;37.89;29.08;101302.66;107470;1254;98388;-62
2023/08/20 09:49:55;;;;;;;9.50;3.10;;;;;;;38.46;28.35;101298.08;107471;1257;111804;-63
2023/08/20 09:52:40;;;;;;;9.20;3.50;;;;;;;39.00;27.24;101298.05;107413;1254;109018;-63
2023/08/20 09:55:13;;;;;;;9.70;3.60;;;;;;;39.52;27.79;101300.12;107435;1254;108854;-63
2023/08/20 09:57:42;;;;;;;10.00;3.00;;;;;;;40.06;26.31;101295.37;107099;1254;460626;-62
2023/08/20 10:00:15;;;;;;;8.60;2.90;;;;;;;40.62;25.80;101294.01;107436;1254;97860;-62
2023/08/20 10:02:46;;;;;;;;;;;;;;;41.02;23.91;101288.36;107436;1254;111679;-62
2023/08/20 10:05:15;;;;;;;10.00;3.00;;;;;;;41.37;23.89;101289.67;107386;1254;109673;-63
2023/08/20 10:07:46;;;;;;;7.90;2.50;;;;;;;41.62;22.94;101280.98;107356;1257;107705;-62
2023/08/20 10:10:14;;;;;;;7.90;3.10;;;;;;;41.96;23.37;101278.14;107434;1254;97844;-61
2023/08/20 10:12:48;;;;;;;3.90;2.90;;;;;;;42.27;22.22;101278.14;107403;1254;98367;-62
2023/08/20 10:15:16;;;;;;;9.20;3.00;;;;;;;42.50;21.86;101276.35;107423;1254;110186;-63
2023/08/20 10:17:45;;;;;;;8.30;3.10;;;;;;;42.81;22.74;101270.75;107424;1257;109686;-63
2023/08/20 10:20:16;;;;;;;5.10;2.80;;;;;;;43.07;21.14;101271.09;107378;1254;109151;-62
2023/08/20 10:22:45;;;;;;;8.10;2.80;;;;;;;42.01;22.22;101276.02;107443;1254;97873;-62
2023/08/20 10:25:24;;;;;;;7.30;3.00;;;;;;;41.11;23.33;101275.77;107424;1254;97841;-61
2023/08/20 10:27:53;;;;;;;5.60;2.90;;;;;;;40.50;23.04;101273.71;107451;1254;111828;-61
2023/08/20 10:30:26;;;;;;;6.40;2.70;;;;;;;40.80;23.05;101270.16;107403;1254;109932;-63
2023/08/20 10:32:58;;;;;;;6.20;3.00;;;;;;;41.29;22.75;101270.56;107427;1254;108272;-63
2023/08/20 10:35:50;;;;;;;4.30;2.30;;;;;;;41.92;22.06;101267.98;107371;1254;97863;-62
2023/08/20 10:38:19;;;;;;;9.10;2.60;;;;;;;42.50;21.22;101262.45;107429;1254;98379;-63
2023/08/20 10:40:57;;;;;;;4.30;2.40;;;;;;;42.50;21.16;101259.13;107426;1254;112182;-61
2023/08/20 10:43:29;;;;;;;7.50;2.60;;;;;;;42.25;21.22;101256.58;107447;1254;110444;-63
2023/08/20 10:46:18;;;;;;;3.50;2.20;;;;;;;42.73;20.17;101252.75;107438;1254;108047;-64
2023/08/20 10:48:52;;;;;;;7.70;2.20;;;;;;;43.12;20.08;101247.92;107327;1254;97944;-63
2023/08/20 10:51:35;;;;;;;6.50;2.40;;;;;;;43.54;20.14;101247.08;107431;1257;97833;-62
2023/08/20 10:54:09;;;;;;;6.30;1.80;;;;;;;44.09;19.89;101247.17;107473;1254;112281;-62
2023/08/20 10:56:40;;;;;;;15.00;2.20;;;;;;;44.47;19.44;101242.63;107463;1254;109042;-62
2023/08/20 10:59:16;;;;;;;8.50;2.50;;;;;;;44.76;18.28;101244.32;107419;1254;108593;-63
2023/08/20 11:01:49;;;;;;;6.20;2.60;;;;;;;44.92;18.10;101244.89;107439;1254;97895;-64
2023/08/20 11:04:23;;;;;;;5.30;2.50;;;;;;;45.21;18.09;101242.06;107423;1256;97873;-61
2023/08/20 11:06:56;;;;;;;8.90;2.20;;;;;;;45.57;17.84;101240.38;107395;1257;112217;-64
2023/08/20 11:09:26;;;;;;;5.10;2.00;;;;;;;45.43;18.15;101237.88;107425;1257;108403;-63
2023/08/20 11:11:55;;;;;;;5.90;1.90;;;;;;;45.19;18.42;101238.42;107413;1256;108514;-63
2023/08/20 11:14:24;;;;;;;5.20;2.40;;;;;;;44.48;18.68;101232.13;107396;1254;97837;-63
2023/08/20 11:16:53;;;;;;;7.70;2.30;;;;;;;43.73;19.40;101229.69;107400;1254;97714;-62
2023/08/20 11:19:23;;;;;;;4.20;2.10;;;;;;;43.46;18.76;101221.70;107438;1254;112774;-63